Mount Jewett, Pennsylvania
Current Conditions -  °F | °C
As of 1:53 AM on Friday 28 Nov 2014 (Local Time) from KBFD Reporting Station
Overcast Overcast  
Wind Chill: 10°   Ceiling: 1700
Heat Index: 23°   Visibility: 10mi
Dew Point: 17°   Wind: 16mph
Humidity: 78%   Direction: 310°NW
Pressure: 30.07"   Gusts: 24mph
Location:  41.73°N, 78.64°W
Report Text: KBFD 280653Z AUTO 31014G21KT 10SM OVC017 M05/M08 A3007 RMK AO2 UPB29E34SNE29 SLP207 P0000 T10501083
Loading
Personal Weather Stations






























Interactive Weather Map New forecast layout! Learn more

10-Day Weather Forecast

Advertisements
Track Severe Weather on mobile